Airbus A320 zaradi megle ni mogel pristati v Mariboru

Oceni ta prispevek
(0 glasov)
26 Jan 20
Napisal
Objavljeno v Novice

Danes dopoldan je bilo letalo turške letalske družbe Freebird Airlines, Airbus A320, na letu iz Antalije v Maribor, preusmerjeno na alternativno letališče.

Razlog preusmeritve je bila gosta primrzujoča megla na mariborskem letališču, kjer je bila vidljivost v času prileta letala med 150 in 200 metri, vidljivost vzdolž vzletno-pristajalne steze (t.i. RVR) pa le 350 metrov. To je bistveno pod minimalnimi zahtevami za instrumentalni prilet na mariborsko letališče in ker ni bilo izboljšav, se je posadka po približno pol ure čakanja v zraku najprej odločila, da svoj let preusmeri v Ljubljano, kmalu za tem pa to odločitev spremenila ter letalo preusmerila v avstrijski Gradec. Od tam so po nekajurni zamudi nogometaši NK Maribor in NK Celje s spremljevalnim osebjem le poleteli proti turški Antaliji. 

Vremenske razmere to dopoldne na letališču Maribor:

LJMB 260900Z VRB01KT 0200 R32/0350N FZFG VV002 M02/M02 Q1022 R99/19//95

LJMB 260930Z VRB02KT 0150 R32/0350N FZFG VV002 M02/M02 Q1022 R99/19//95

LJMB 261000Z 35002KT 0250 R32/0350N FZFG VV002 M01/M02 Q1022 R99/19//95

LJMB 261030Z VRB02KT 0400 R32/0500N FZFG VV002 M01/M01 Q1022 R99/19//95

 

Spodaj še fotografija celjskih nogometašev, tik pred poletom iz Gradca.

Mediji

Oddajte komentar

Prepričajte se, da vnesete vse obvezne podatke, označene z zvezdico (*). HTML koda ni dovoljena.


Koledar objav

« Oktober 2020 »
Pon Tor Sre Čet Pet Sob Ned
      1 2 3 4
5 6 7 8 9 10 11
12 13 14 15 16 17 18
19 20 21 22 23 24 25
26 27 28 29 30 31